Aérodrome :
LOGIN :

S'inscrire | Disclaimer

   EN    FR    IT 

 










Légende :    VFR   VFR Marginal   IFR   IFR Intensif   IFR Très Intensif
Visi : 
Plafond : 
>= 8 km
>= 3000ft
5 à 8 km
1000 à 3000 ft
1500m à 5 km
500 à 1000 ft
800 à 1500m
200 à 500 ft
< 800m
< 200 ft
Symboles :   Orages  Brouillard  Fortes neiges  Fortes précipitations  Vent > 20 kt
SIGMETs :   Divers  Orages  Givrage  Turbulence  Onde Orograph.  Cendres Volcan.






- Altitude de l'aérodrome : 239 ft
- Code IATA : VRN


LIPX - Villafranca Int. Verona

DERNIER METAR :
  • 251050Z 28007KT CAVOK 18/12 Q1015

METARs EXPIRÉS :
  • 251020Z 25007KT CAVOK 18/13 Q1015
  • 250950Z 24006KT 210V270 CAVOK 17/13 Q1015
  • 250920Z 26006KT CAVOK 17/14 Q1016
  • 250850Z 28004KT 250V310 CAVOK 16/13 Q1015
  • 250820Z 27005KT CAVOK 15/13 Q1015

TAF TAF LIPX
Valide du 25 à 09h jusqu'au 25 à 18h UTC


250800Z 2509/2518 30005KT 9999 SCT050



MET'MAP, la Météo Aéronautique d'un coup d'oeil ! - Copyright ORBIFLY Décembre 2007 - Disclaimer

ORBIFLY MET'MAP TEAM :

Programmation & Développement : Alexandra Zaïnal
Sur une idée originale de : Baudouin d'Aumeries
Assistance à la programmation : Marc-Olivier Méhu
Soutien technique & logistique : Manuel Goepfert

Contact : metmap@orbifly.com




SOURCES & CREDITS :

   NOAA